sensor_id;sensor_type;location;lat;lon;timestamp;P1;durP1;ratioP1;P2;durP2;ratioP2
29240;SDS011;16268;49.880;8.648;2023-02-07T00:01:12;5.57;;;3.20;;
29240;SDS011;16268;49.880;8.648;2023-02-07T00:03:40;6.20;;;2.95;;
29240;SDS011;16268;49.880;8.648;2023-02-07T00:06:10;5.90;;;3.13;;
29240;SDS011;16268;49.880;8.648;2023-02-07T00:08:38;6.88;;;3.10;;
29240;SDS011;16268;49.880;8.648;2023-02-07T00:11:05;5.78;;;2.90;;
29240;SDS011;16268;49.880;8.648;2023-02-07T00:13:32;6.55;;;3.20;;
29240;SDS011;16268;49.880;8.648;2023-02-07T00:15:57;6.32;;;3.25;;
29240;SDS011;16268;49.880;8.648;2023-02-07T00:18:24;5.72;;;2.80;;
29240;SDS011;16268;49.880;8.648;2023-02-07T00:21:03;6.20;;;3.50;;
29240;SDS011;16268;49.880;8.648;2023-02-07T00:23:30;7.22;;;3.50;;
29240;SDS011;16268;49.880;8.648;2023-02-07T00:25:56;4.85;;;2.92;;
29240;SDS011;16268;49.880;8.648;2023-02-07T00:28:22;5.18;;;3.30;;
29240;SDS011;16268;49.880;8.648;2023-02-07T00:30:48;5.43;;;3.03;;
29240;SDS011;16268;49.880;8.648;2023-02-07T00:33:13;6.65;;;3.08;;
29240;SDS011;16268;49.880;8.648;2023-02-07T00:35:39;6.38;;;2.97;;
29240;SDS011;16268;49.880;8.648;2023-02-07T00:38:05;6.43;;;3.45;;
29240;SDS011;16268;49.880;8.648;2023-02-07T00:40:30;6.35;;;2.95;;
29240;SDS011;16268;49.880;8.648;2023-02-07T00:42:56;5.43;;;2.88;;
29240;SDS011;16268;49.880;8.648;2023-02-07T00:45:21;4.90;;;2.88;;
29240;SDS011;16268;49.880;8.648;2023-02-07T00:47:47;5.05;;;2.90;;
29240;SDS011;16268;49.880;8.648;2023-02-07T00:50:12;5.40;;;3.42;;
29240;SDS011;16268;49.880;8.648;2023-02-07T00:52:38;6.18;;;3.25;;
29240;SDS011;16268;49.880;8.648;2023-02-07T00:55:04;6.13;;;3.33;;
29240;SDS011;16268;49.880;8.648;2023-02-07T00:57:30;5.40;;;3.08;;
29240;SDS011;16268;49.880;8.648;2023-02-07T00:59:55;5.22;;;2.58;;
29240;SDS011;16268;49.880;8.648;2023-02-07T01:02:21;4.68;;;2.72;;
29240;SDS011;16268;49.880;8.648;2023-02-07T01:04:46;6.25;;;3.13;;
29240;SDS011;16268;49.880;8.648;2023-02-07T01:07:12;4.85;;;2.80;;
29240;SDS011;16268;49.880;8.648;2023-02-07T01:09:37;6.55;;;2.80;;
29240;SDS011;16268;49.880;8.648;2023-02-07T01:12:04;5.82;;;2.80;;
29240;SDS011;16268;49.880;8.648;2023-02-07T01:14:29;5.18;;;2.70;;
29240;SDS011;16268;49.880;8.648;2023-02-07T01:16:55;6.05;;;3.13;;
29240;SDS011;16268;49.880;8.648;2023-02-07T01:19:20;5.13;;;2.72;;
29240;SDS011;16268;49.880;8.648;2023-02-07T01:21:46;5.72;;;2.95;;
29240;SDS011;16268;49.880;8.648;2023-02-07T01:24:11;5.15;;;2.70;;
29240;SDS011;16268;49.880;8.648;2023-02-07T01:26:37;4.25;;;2.50;;
29240;SDS011;16268;49.880;8.648;2023-02-07T01:29:03;5.55;;;2.90;;
29240;SDS011;16268;49.880;8.648;2023-02-07T01:31:30;5.07;;;2.88;;
29240;SDS011;16268;49.880;8.648;2023-02-07T01:33:56;5.32;;;3.03;;
29240;SDS011;16268;49.880;8.648;2023-02-07T01:36:23;5.90;;;2.97;;
29240;SDS011;16268;49.880;8.648;2023-02-07T01:38:50;5.80;;;2.92;;
29240;SDS011;16268;49.880;8.648;2023-02-07T01:41:17;5.05;;;2.45;;
29240;SDS011;16268;49.880;8.648;2023-02-07T01:43:53;6.07;;;3.33;;
29240;SDS011;16268;49.880;8.648;2023-02-07T01:46:18;5.25;;;2.85;;
29240;SDS011;16268;49.880;8.648;2023-02-07T01:48:44;4.88;;;2.78;;
29240;SDS011;16268;49.880;8.648;2023-02-07T01:51:10;5.05;;;2.95;;
29240;SDS011;16268;49.880;8.648;2023-02-07T01:53:36;5.10;;;3.00;;
29240;SDS011;16268;49.880;8.648;2023-02-07T01:56:03;5.35;;;3.13;;
29240;SDS011;16268;49.880;8.648;2023-02-07T01:58:33;5.63;;;3.00;;
29240;SDS011;16268;49.880;8.648;2023-02-07T02:01:03;5.68;;;3.20;;
29240;SDS011;16268;49.880;8.648;2023-02-07T02:03:33;6.28;;;3.22;;
29240;SDS011;16268;49.880;8.648;2023-02-07T02:06:02;5.72;;;3.20;;
29240;SDS011;16268;49.880;8.648;2023-02-07T02:08:28;7.00;;;3.50;;
29240;SDS011;16268;49.880;8.648;2023-02-07T02:13:44;6.05;;;3.80;;
29240;SDS011;16268;49.880;8.648;2023-02-07T02:27:10;6.50;;;3.42;;
29240;SDS011;16268;49.880;8.648;2023-02-07T02:29:52;7.93;;;3.83;;
29240;SDS011;16268;49.880;8.648;2023-02-07T02:35:15;7.47;;;4.10;;
29240;SDS011;16268;49.880;8.648;2023-02-07T02:42:53;7.65;;;4.75;;
29240;SDS011;16268;49.880;8.648;2023-02-07T02:45:38;9.23;;;4.70;;
29240;SDS011;16268;49.880;8.648;2023-02-07T02:48:09;9.27;;;5.43;;
29240;SDS011;16268;49.880;8.648;2023-02-07T02:50:36;8.57;;;4.88;;
29240;SDS011;16268;49.880;8.648;2023-02-07T02:53:03;9.27;;;5.23;;
29240;SDS011;16268;49.880;8.648;2023-02-07T03:11:23;10.73;;;5.97;;
29240;SDS011;16268;49.880;8.648;2023-02-07T03:16:47;10.23;;;5.70;;
29240;SDS011;16268;49.880;8.648;2023-02-07T03:19:28;10.87;;;5.77;;
29240;SDS011;16268;49.880;8.648;2023-02-07T03:22:05;10.53;;;5.77;;
29240;SDS011;16268;49.880;8.648;2023-02-07T03:24:35;11.05;;;6.18;;
29240;SDS011;16268;49.880;8.648;2023-02-07T03:27:05;10.23;;;6.20;;
29240;SDS011;16268;49.880;8.648;2023-02-07T03:29:33;11.13;;;5.90;;
29240;SDS011;16268;49.880;8.648;2023-02-07T03:32:02;10.43;;;5.93;;
29240;SDS011;16268;49.880;8.648;2023-02-07T03:34:52;10.70;;;6.18;;
29240;SDS011;16268;49.880;8.648;2023-02-07T03:37:24;10.67;;;5.87;;
29240;SDS011;16268;49.880;8.648;2023-02-07T03:39:50;10.57;;;6.07;;
29240;SDS011;16268;49.880;8.648;2023-02-07T03:42:25;9.37;;;5.87;;
29240;SDS011;16268;49.880;8.648;2023-02-07T03:44:54;13.00;;;6.27;;
29240;SDS011;16268;49.880;8.648;2023-02-07T03:47:22;10.70;;;6.00;;
29240;SDS011;16268;49.880;8.648;2023-02-07T03:49:49;12.07;;;6.47;;
29240;SDS011;16268;49.880;8.648;2023-02-07T03:52:14;12.67;;;6.60;;
29240;SDS011;16268;49.880;8.648;2023-02-07T03:54:40;12.57;;;6.57;;
29240;SDS011;16268;49.880;8.648;2023-02-07T03:57:05;12.80;;;6.87;;
29240;SDS011;16268;49.880;8.648;2023-02-07T03:59:31;10.63;;;6.10;;
29240;SDS011;16268;49.880;8.648;2023-02-07T04:01:56;10.60;;;7.28;;
29240;SDS011;16268;49.880;8.648;2023-02-07T04:04:22;11.32;;;6.72;;
29240;SDS011;16268;49.880;8.648;2023-02-07T04:06:48;11.27;;;7.00;;
29240;SDS011;16268;49.880;8.648;2023-02-07T04:09:13;12.43;;;7.10;;
29240;SDS011;16268;49.880;8.648;2023-02-07T04:11:40;12.38;;;6.80;;
29240;SDS011;16268;49.880;8.648;2023-02-07T04:14:05;11.67;;;6.77;;
29240;SDS011;16268;49.880;8.648;2023-02-07T04:16:31;10.90;;;6.63;;
29240;SDS011;16268;49.880;8.648;2023-02-07T04:18:56;13.27;;;7.15;;
29240;SDS011;16268;49.880;8.648;2023-02-07T04:21:22;11.98;;;7.20;;
29240;SDS011;16268;49.880;8.648;2023-02-07T04:23:47;10.70;;;6.75;;
29240;SDS011;16268;49.880;8.648;2023-02-07T04:26:13;10.85;;;6.70;;
29240;SDS011;16268;49.880;8.648;2023-02-07T04:28:38;13.00;;;7.37;;
29240;SDS011;16268;49.880;8.648;2023-02-07T04:31:04;12.50;;;6.50;;
29240;SDS011;16268;49.880;8.648;2023-02-07T04:33:29;14.75;;;7.55;;
29240;SDS011;16268;49.880;8.648;2023-02-07T04:35:59;12.23;;;7.17;;
29240;SDS011;16268;49.880;8.648;2023-02-07T04:38:26;12.97;;;7.40;;
29240;SDS011;16268;49.880;8.648;2023-02-07T04:40:56;12.57;;;7.53;;
29240;SDS011;16268;49.880;8.648;2023-02-07T04:43:27;13.00;;;7.40;;
29240;SDS011;16268;49.880;8.648;2023-02-07T04:45:53;12.73;;;7.97;;
29240;SDS011;16268;49.880;8.648;2023-02-07T04:48:19;16.93;;;8.63;;
29240;SDS011;16268;49.880;8.648;2023-02-07T04:50:44;12.43;;;7.60;;
29240;SDS011;16268;49.880;8.648;2023-02-07T04:53:10;13.83;;;7.83;;
29240;SDS011;16268;49.880;8.648;2023-02-07T04:55:35;14.43;;;8.47;;
29240;SDS011;16268;49.880;8.648;2023-02-07T04:58:02;14.73;;;9.60;;
29240;SDS011;16268;49.880;8.648;2023-02-07T05:00:28;15.47;;;8.70;;
29240;SDS011;16268;49.880;8.648;2023-02-07T05:02:54;17.03;;;8.53;;
29240;SDS011;16268;49.880;8.648;2023-02-07T05:05:20;16.80;;;9.33;;
29240;SDS011;16268;49.880;8.648;2023-02-07T05:07:45;17.50;;;9.30;;
29240;SDS011;16268;49.880;8.648;2023-02-07T05:10:11;17.33;;;9.80;;
29240;SDS011;16268;49.880;8.648;2023-02-07T05:12:36;16.70;;;9.97;;
29240;SDS011;16268;49.880;8.648;2023-02-07T05:15:02;17.77;;;9.17;;
29240;SDS011;16268;49.880;8.648;2023-02-07T05:17:27;15.80;;;9.03;;
29240;SDS011;16268;49.880;8.648;2023-02-07T05:19:54;16.43;;;10.10;;
29240;SDS011;16268;49.880;8.648;2023-02-07T05:22:20;15.60;;;9.27;;
29240;SDS011;16268;49.880;8.648;2023-02-07T05:24:45;17.40;;;9.97;;
29240;SDS011;16268;49.880;8.648;2023-02-07T05:27:11;16.53;;;9.80;;
29240;SDS011;16268;49.880;8.648;2023-02-07T05:29:36;18.37;;;10.13;;
29240;SDS011;16268;49.880;8.648;2023-02-07T05:32:02;17.43;;;10.67;;
29240;SDS011;16268;49.880;8.648;2023-02-07T05:34:46;16.63;;;9.90;;
29240;SDS011;16268;49.880;8.648;2023-02-07T05:37:12;21.80;;;10.43;;
29240;SDS011;16268;49.880;8.648;2023-02-07T05:39:37;19.23;;;10.23;;
29240;SDS011;16268;49.880;8.648;2023-02-07T05:42:03;16.53;;;9.87;;
29240;SDS011;16268;49.880;8.648;2023-02-07T05:44:28;17.20;;;10.57;;
29240;SDS011;16268;49.880;8.648;2023-02-07T05:46:54;17.63;;;9.93;;
29240;SDS011;16268;49.880;8.648;2023-02-07T05:49:19;18.90;;;10.80;;
29240;SDS011;16268;49.880;8.648;2023-02-07T05:51:51;18.40;;;10.70;;
29240;SDS011;16268;49.880;8.648;2023-02-07T05:54:17;18.73;;;10.70;;
29240;SDS011;16268;49.880;8.648;2023-02-07T05:56:42;16.70;;;10.10;;
29240;SDS011;16268;49.880;8.648;2023-02-07T05:59:08;18.13;;;10.37;;
29240;SDS011;16268;49.880;8.648;2023-02-07T06:01:33;17.50;;;10.00;;
29240;SDS011;16268;49.880;8.648;2023-02-07T06:03:59;19.30;;;10.53;;
29240;SDS011;16268;49.880;8.648;2023-02-07T06:06:24;17.67;;;9.90;;
29240;SDS011;16268;49.880;8.648;2023-02-07T06:08:50;18.33;;;9.60;;
29240;SDS011;16268;49.880;8.648;2023-02-07T06:11:15;18.30;;;10.43;;
29240;SDS011;16268;49.880;8.648;2023-02-07T06:13:41;20.93;;;10.77;;
29240;SDS011;16268;49.880;8.648;2023-02-07T06:16:06;19.70;;;11.27;;
29240;SDS011;16268;49.880;8.648;2023-02-07T06:18:34;19.07;;;11.20;;
29240;SDS011;16268;49.880;8.648;2023-02-07T06:21:01;19.43;;;10.90;;
29240;SDS011;16268;49.880;8.648;2023-02-07T06:23:27;18.50;;;10.40;;
29240;SDS011;16268;49.880;8.648;2023-02-07T06:25:52;21.07;;;10.80;;
29240;SDS011;16268;49.880;8.648;2023-02-07T06:28:18;19.77;;;11.37;;
29240;SDS011;16268;49.880;8.648;2023-02-07T06:30:43;20.17;;;12.17;;
29240;SDS011;16268;49.880;8.648;2023-02-07T06:33:09;19.87;;;11.37;;
29240;SDS011;16268;49.880;8.648;2023-02-07T06:35:35;18.73;;;10.93;;
29240;SDS011;16268;49.880;8.648;2023-02-07T06:38:01;20.13;;;11.43;;
29240;SDS011;16268;49.880;8.648;2023-02-07T06:40:26;22.70;;;12.03;;
29240;SDS011;16268;49.880;8.648;2023-02-07T06:42:52;21.50;;;12.60;;
29240;SDS011;16268;49.880;8.648;2023-02-07T06:45:18;19.73;;;12.23;;
29240;SDS011;16268;49.880;8.648;2023-02-07T06:47:43;22.47;;;12.23;;
29240;SDS011;16268;49.880;8.648;2023-02-07T06:50:09;18.00;;;11.70;;
29240;SDS011;16268;49.880;8.648;2023-02-07T06:52:34;23.30;;;12.53;;
29240;SDS011;16268;49.880;8.648;2023-02-07T06:55:00;21.93;;;12.70;;
29240;SDS011;16268;49.880;8.648;2023-02-07T06:57:25;22.83;;;12.20;;
29240;SDS011;16268;49.880;8.648;2023-02-07T06:59:51;18.63;;;11.47;;
29240;SDS011;16268;49.880;8.648;2023-02-07T07:02:16;22.17;;;12.50;;
29240;SDS011;16268;49.880;8.648;2023-02-07T07:04:42;21.07;;;12.53;;
29240;SDS011;16268;49.880;8.648;2023-02-07T07:07:07;23.83;;;12.80;;
29240;SDS011;16268;49.880;8.648;2023-02-07T07:09:34;25.07;;;12.23;;
29240;SDS011;16268;49.880;8.648;2023-02-07T07:12:00;20.67;;;11.47;;
29240;SDS011;16268;49.880;8.648;2023-02-07T07:14:25;23.30;;;11.80;;
29240;SDS011;16268;49.880;8.648;2023-02-07T07:16:51;20.57;;;12.03;;
29240;SDS011;16268;49.880;8.648;2023-02-07T07:19:16;21.43;;;11.73;;
29240;SDS011;16268;49.880;8.648;2023-02-07T07:21:42;19.67;;;11.40;;
29240;SDS011;16268;49.880;8.648;2023-02-07T07:24:07;22.03;;;11.70;;
29240;SDS011;16268;49.880;8.648;2023-02-07T07:26:33;21.47;;;12.00;;
29240;SDS011;16268;49.880;8.648;2023-02-07T07:28:59;21.90;;;12.40;;
29240;SDS011;16268;49.880;8.648;2023-02-07T07:31:25;19.43;;;12.10;;
29240;SDS011;16268;49.880;8.648;2023-02-07T07:33:52;20.70;;;12.20;;
29240;SDS011;16268;49.880;8.648;2023-02-07T07:36:18;20.63;;;12.37;;
29240;SDS011;16268;49.880;8.648;2023-02-07T07:38:44;22.40;;;12.30;;
29240;SDS011;16268;49.880;8.648;2023-02-07T07:41:09;21.07;;;11.80;;
29240;SDS011;16268;49.880;8.648;2023-02-07T07:43:35;22.13;;;11.83;;
29240;SDS011;16268;49.880;8.648;2023-02-07T07:46:00;22.67;;;12.50;;
29240;SDS011;16268;49.880;8.648;2023-02-07T07:48:26;20.73;;;12.70;;
29240;SDS011;16268;49.880;8.648;2023-02-07T07:50:52;19.97;;;12.00;;
29240;SDS011;16268;49.880;8.648;2023-02-07T07:53:18;21.30;;;12.07;;
29240;SDS011;16268;49.880;8.648;2023-02-07T07:55:48;18.87;;;12.10;;
29240;SDS011;16268;49.880;8.648;2023-02-07T07:58:15;21.17;;;12.07;;
29240;SDS011;16268;49.880;8.648;2023-02-07T08:00:41;23.10;;;12.20;;
29240;SDS011;16268;49.880;8.648;2023-02-07T08:03:06;20.43;;;12.30;;
29240;SDS011;16268;49.880;8.648;2023-02-07T08:05:32;21.73;;;11.30;;
29240;SDS011;16268;49.880;8.648;2023-02-07T08:07:57;21.43;;;12.17;;
29240;SDS011;16268;49.880;8.648;2023-02-07T08:10:23;19.53;;;12.23;;
29240;SDS011;16268;49.880;8.648;2023-02-07T08:12:49;21.53;;;11.57;;
29240;SDS011;16268;49.880;8.648;2023-02-07T08:15:14;20.70;;;12.37;;
29240;SDS011;16268;49.880;8.648;2023-02-07T08:17:40;26.37;;;15.00;;
29240;SDS011;16268;49.880;8.648;2023-02-07T08:20:05;23.83;;;12.27;;
29240;SDS011;16268;49.880;8.648;2023-02-07T08:22:31;20.50;;;12.17;;
29240;SDS011;16268;49.880;8.648;2023-02-07T08:24:57;22.33;;;12.17;;
29240;SDS011;16268;49.880;8.648;2023-02-07T08:27:22;24.17;;;12.03;;
29240;SDS011;16268;49.880;8.648;2023-02-07T08:29:48;19.97;;;12.37;;
29240;SDS011;16268;49.880;8.648;2023-02-07T08:32:14;23.13;;;11.80;;
29240;SDS011;16268;49.880;8.648;2023-02-07T08:34:39;19.10;;;11.70;;
29240;SDS011;16268;49.880;8.648;2023-02-07T08:37:06;22.37;;;12.13;;
29240;SDS011;16268;49.880;8.648;2023-02-07T08:39:33;19.73;;;11.53;;
29240;SDS011;16268;49.880;8.648;2023-02-07T08:41:59;21.23;;;11.27;;
29240;SDS011;16268;49.880;8.648;2023-02-07T08:44:25;22.87;;;11.57;;
29240;SDS011;16268;49.880;8.648;2023-02-07T08:46:50;19.37;;;11.50;;
29240;SDS011;16268;49.880;8.648;2023-02-07T08:49:16;18.20;;;10.67;;
29240;SDS011;16268;49.880;8.648;2023-02-07T08:51:41;20.00;;;10.83;;
29240;SDS011;16268;49.880;8.648;2023-02-07T08:54:07;19.97;;;11.27;;
29240;SDS011;16268;49.880;8.648;2023-02-07T08:56:33;21.70;;;11.00;;
29240;SDS011;16268;49.880;8.648;2023-02-07T08:58:59;20.37;;;10.70;;
29240;SDS011;16268;49.880;8.648;2023-02-07T09:01:24;20.17;;;11.10;;
29240;SDS011;16268;49.880;8.648;2023-02-07T09:03:53;19.10;;;11.20;;
29240;SDS011;16268;49.880;8.648;2023-02-07T09:06:20;20.38;;;12.18;;
29240;SDS011;16268;49.880;8.648;2023-02-07T09:08:47;20.60;;;11.40;;
29240;SDS011;16268;49.880;8.648;2023-02-07T09:11:12;21.17;;;10.83;;
29240;SDS011;16268;49.880;8.648;2023-02-07T09:13:39;18.67;;;11.30;;
29240;SDS011;16268;49.880;8.648;2023-02-07T09:16:05;20.53;;;11.23;;
29240;SDS011;16268;49.880;8.648;2023-02-07T09:18:30;18.80;;;11.25;;
29240;SDS011;16268;49.880;8.648;2023-02-07T09:20:56;19.13;;;11.05;;
29240;SDS011;16268;49.880;8.648;2023-02-07T09:23:21;19.65;;;10.90;;
29240;SDS011;16268;49.880;8.648;2023-02-07T09:25:48;18.10;;;10.10;;
29240;SDS011;16268;49.880;8.648;2023-02-07T09:28:16;17.35;;;10.10;;
29240;SDS011;16268;49.880;8.648;2023-02-07T09:30:43;17.92;;;11.23;;
29240;SDS011;16268;49.880;8.648;2023-02-07T09:33:10;17.40;;;11.00;;
29240;SDS011;16268;49.880;8.648;2023-02-07T09:35:37;18.38;;;10.85;;
29240;SDS011;16268;49.880;8.648;2023-02-07T09:38:11;16.95;;;10.68;;
29240;SDS011;16268;49.880;8.648;2023-02-07T09:40:38;17.67;;;10.63;;
29240;SDS011;16268;49.880;8.648;2023-02-07T09:45:38;18.20;;;10.65;;
29240;SDS011;16268;49.880;8.648;2023-02-07T09:48:13;17.67;;;10.45;;
29240;SDS011;16268;49.880;8.648;2023-02-07T09:50:47;16.63;;;10.07;;
29240;SDS011;16268;49.880;8.648;2023-02-07T09:53:27;16.67;;;10.32;;
29240;SDS011;16268;49.880;8.648;2023-02-07T09:56:03;17.67;;;10.60;;
29240;SDS011;16268;49.880;8.648;2023-02-07T09:59:37;17.23;;;10.38;;
29240;SDS011;16268;49.880;8.648;2023-02-07T10:01:31;15.88;;;10.32;;
29240;SDS011;16268;49.880;8.648;2023-02-07T10:07:03;18.33;;;10.32;;
29240;SDS011;16268;49.880;8.648;2023-02-07T10:09:34;18.48;;;11.05;;
29240;SDS011;16268;49.880;8.648;2023-02-07T10:17:25;18.15;;;10.05;;
29240;SDS011;16268;49.880;8.648;2023-02-07T10:28:19;17.52;;;10.40;;
29240;SDS011;16268;49.880;8.648;2023-02-07T10:31:11;18.05;;;11.02;;
29240;SDS011;16268;49.880;8.648;2023-02-07T10:33:42;17.00;;;9.88;;
29240;SDS011;16268;49.880;8.648;2023-02-07T10:36:13;16.88;;;9.82;;
29240;SDS011;16268;49.880;8.648;2023-02-07T10:38:44;16.45;;;10.35;;
29240;SDS011;16268;49.880;8.648;2023-02-07T10:41:23;19.38;;;10.02;;
29240;SDS011;16268;49.880;8.648;2023-02-07T10:43:57;16.05;;;10.48;;
29240;SDS011;16268;49.880;8.648;2023-02-07T10:46:23;16.70;;;10.55;;
29240;SDS011;16268;49.880;8.648;2023-02-07T10:48:48;18.65;;;10.73;;
29240;SDS011;16268;49.880;8.648;2023-02-07T10:51:24;18.17;;;10.50;;
29240;SDS011;16268;49.880;8.648;2023-02-07T10:54:00;15.88;;;9.98;;
29240;SDS011;16268;49.880;8.648;2023-02-07T10:56:35;17.35;;;10.45;;
29240;SDS011;16268;49.880;8.648;2023-02-07T10:59:22;16.55;;;10.20;;
29240;SDS011;16268;49.880;8.648;2023-02-07T11:04:53;18.80;;;9.18;;
29240;SDS011;16268;49.880;8.648;2023-02-07T11:07:20;17.90;;;9.63;;
29240;SDS011;16268;49.880;8.648;2023-02-07T11:09:47;16.83;;;8.95;;
29240;SDS011;16268;49.880;8.648;2023-02-07T11:15:05;14.77;;;9.60;;
29240;SDS011;16268;49.880;8.648;2023-02-07T11:17:45;15.45;;;10.05;;
29240;SDS011;16268;49.880;8.648;2023-02-07T11:20:16;19.75;;;9.73;;
29240;SDS011;16268;49.880;8.648;2023-02-07T11:22:51;15.05;;;9.65;;
29240;SDS011;16268;49.880;8.648;2023-02-07T11:25:17;16.80;;;9.68;;
29240;SDS011;16268;49.880;8.648;2023-02-07T11:27:50;14.80;;;9.57;;
29240;SDS011;16268;49.880;8.648;2023-02-07T11:30:18;14.43;;;9.32;;
29240;SDS011;16268;49.880;8.648;2023-02-07T11:33:09;14.95;;;9.27;;
29240;SDS011;16268;49.880;8.648;2023-02-07T11:35:39;16.27;;;9.65;;
29240;SDS011;16268;49.880;8.648;2023-02-07T11:38:36;15.75;;;9.32;;
29240;SDS011;16268;49.880;8.648;2023-02-07T11:41:03;15.57;;;9.50;;
29240;SDS011;16268;49.880;8.648;2023-02-07T11:43:31;16.17;;;8.88;;
29240;SDS011;16268;49.880;8.648;2023-02-07T11:45:59;15.93;;;9.45;;
29240;SDS011;16268;49.880;8.648;2023-02-07T11:48:30;18.50;;;8.93;;
29240;SDS011;16268;49.880;8.648;2023-02-07T11:51:00;13.23;;;8.55;;
29240;SDS011;16268;49.880;8.648;2023-02-07T11:55:56;16.23;;;9.07;;
29240;SDS011;16268;49.880;8.648;2023-02-07T11:58:32;16.48;;;9.07;;
29240;SDS011;16268;49.880;8.648;2023-02-07T12:01:05;15.70;;;9.38;;
29240;SDS011;16268;49.880;8.648;2023-02-07T12:03:32;16.60;;;9.48;;
29240;SDS011;16268;49.880;8.648;2023-02-07T12:06:05;14.20;;;8.88;;
29240;SDS011;16268;49.880;8.648;2023-02-07T12:08:35;16.50;;;9.65;;
29240;SDS011;16268;49.880;8.648;2023-02-07T12:11:08;17.55;;;9.73;;
29240;SDS011;16268;49.880;8.648;2023-02-07T12:13:42;13.77;;;9.33;;
29240;SDS011;16268;49.880;8.648;2023-02-07T12:16:16;18.33;;;9.50;;
29240;SDS011;16268;49.880;8.648;2023-02-07T12:18:59;17.35;;;9.20;;
29240;SDS011;16268;49.880;8.648;2023-02-07T12:21:30;14.90;;;9.35;;
29240;SDS011;16268;49.880;8.648;2023-02-07T12:24:05;14.65;;;8.98;;
29240;SDS011;16268;49.880;8.648;2023-02-07T12:26:56;15.75;;;9.10;;
29240;SDS011;16268;49.880;8.648;2023-02-07T12:29:30;14.38;;;9.02;;
29240;SDS011;16268;49.880;8.648;2023-02-07T12:35:16;14.45;;;9.05;;
29240;SDS011;16268;49.880;8.648;2023-02-07T12:38:02;14.45;;;8.95;;
29240;SDS011;16268;49.880;8.648;2023-02-07T12:40:40;14.52;;;8.85;;
29240;SDS011;16268;49.880;8.648;2023-02-07T12:43:27;14.57;;;7.95;;
29240;SDS011;16268;49.880;8.648;2023-02-07T12:48:29;15.68;;;8.13;;
29240;SDS011;16268;49.880;8.648;2023-02-07T12:51:07;12.60;;;7.28;;
29240;SDS011;16268;49.880;8.648;2023-02-07T12:53:42;14.60;;;8.15;;
29240;SDS011;16268;49.880;8.648;2023-02-07T13:01:48;14.63;;;7.43;;
29240;SDS011;16268;49.880;8.648;2023-02-07T13:04:32;11.77;;;7.15;;
29240;SDS011;16268;49.880;8.648;2023-02-07T13:12:16;12.70;;;7.47;;
29240;SDS011;16268;49.880;8.648;2023-02-07T13:22:34;11.38;;;6.47;;
29240;SDS011;16268;49.880;8.648;2023-02-07T13:25:43;10.60;;;6.73;;
29240;SDS011;16268;49.880;8.648;2023-02-07T13:28:07;13.13;;;6.72;;
29240;SDS011;16268;49.880;8.648;2023-02-07T13:30:42;13.77;;;6.90;;
29240;SDS011;16268;49.880;8.648;2023-02-07T13:33:31;11.07;;;6.60;;
29240;SDS011;16268;49.880;8.648;2023-02-07T13:36:03;11.50;;;6.18;;
29240;SDS011;16268;49.880;8.648;2023-02-07T13:38:45;11.25;;;5.88;;
29240;SDS011;16268;49.880;8.648;2023-02-07T13:46:45;9.02;;;5.55;;
29240;SDS011;16268;49.880;8.648;2023-02-07T13:49:40;11.60;;;5.45;;
29240;SDS011;16268;49.880;8.648;2023-02-07T13:57:39;9.30;;;5.30;;
29240;SDS011;16268;49.880;8.648;2023-02-07T14:00:26;8.45;;;5.30;;
29240;SDS011;16268;49.880;8.648;2023-02-07T14:02:54;12.60;;;5.40;;
29240;SDS011;16268;49.880;8.648;2023-02-07T14:08:00;9.70;;;6.15;;
29240;SDS011;16268;49.880;8.648;2023-02-07T14:10:39;9.05;;;5.47;;
29240;SDS011;16268;49.880;8.648;2023-02-07T14:15:56;11.52;;;5.80;;
29240;SDS011;16268;49.880;8.648;2023-02-07T14:21:03;10.73;;;5.53;;
29240;SDS011;16268;49.880;8.648;2023-02-07T14:31:47;9.30;;;4.88;;
29240;SDS011;16268;49.880;8.648;2023-02-07T14:34:19;9.90;;;5.30;;
29240;SDS011;16268;49.880;8.648;2023-02-07T14:36:46;10.23;;;4.88;;
29240;SDS011;16268;49.880;8.648;2023-02-07T14:41:38;8.68;;;5.07;;
29240;SDS011;16268;49.880;8.648;2023-02-07T14:44:17;9.85;;;5.30;;
29240;SDS011;16268;49.880;8.648;2023-02-07T14:47:00;8.85;;;4.85;;
29240;SDS011;16268;49.880;8.648;2023-02-07T14:49:38;9.35;;;5.25;;
29240;SDS011;16268;49.880;8.648;2023-02-07T14:52:12;9.05;;;5.30;;
29240;SDS011;16268;49.880;8.648;2023-02-07T14:54:46;9.15;;;4.65;;
29240;SDS011;16268;49.880;8.648;2023-02-07T15:05:16;8.75;;;4.32;;
29240;SDS011;16268;49.880;8.648;2023-02-07T15:07:53;9.63;;;4.93;;
29240;SDS011;16268;49.880;8.648;2023-02-07T15:13:01;7.32;;;4.60;;
29240;SDS011;16268;49.880;8.648;2023-02-07T15:15:29;9.85;;;4.82;;
29240;SDS011;16268;49.880;8.648;2023-02-07T15:18:08;9.95;;;4.90;;
29240;SDS011;16268;49.880;8.648;2023-02-07T15:20:37;8.10;;;5.03;;
29240;SDS011;16268;49.880;8.648;2023-02-07T15:23:04;12.00;;;5.03;;
29240;SDS011;16268;49.880;8.648;2023-02-07T15:25:33;9.57;;;5.28;;
29240;SDS011;16268;49.880;8.648;2023-02-07T15:30:29;10.25;;;4.88;;
29240;SDS011;16268;49.880;8.648;2023-02-07T15:32:55;8.45;;;4.88;;
29240;SDS011;16268;49.880;8.648;2023-02-07T15:35:25;8.45;;;4.97;;
29240;SDS011;16268;49.880;8.648;2023-02-07T15:37:52;10.35;;;4.88;;
29240;SDS011;16268;49.880;8.648;2023-02-07T15:40:19;9.30;;;4.97;;
29240;SDS011;16268;49.880;8.648;2023-02-07T15:42:56;11.80;;;6.05;;
29240;SDS011;16268;49.880;8.648;2023-02-07T15:45:23;12.52;;;6.75;;
29240;SDS011;16268;49.880;8.648;2023-02-07T15:47:57;10.88;;;5.55;;
29240;SDS011;16268;49.880;8.648;2023-02-07T15:50:30;10.00;;;5.05;;
29240;SDS011;16268;49.880;8.648;2023-02-07T15:52:56;11.57;;;5.55;;
29240;SDS011;16268;49.880;8.648;2023-02-07T15:55:28;10.57;;;4.47;;
29240;SDS011;16268;49.880;8.648;2023-02-07T15:57:55;11.40;;;5.30;;
29240;SDS011;16268;49.880;8.648;2023-02-07T16:00:25;11.20;;;5.22;;
29240;SDS011;16268;49.880;8.648;2023-02-07T16:02:59;10.10;;;4.75;;
29240;SDS011;16268;49.880;8.648;2023-02-07T16:05:29;8.93;;;4.68;;
29240;SDS011;16268;49.880;8.648;2023-02-07T16:07:58;8.70;;;4.90;;
29240;SDS011;16268;49.880;8.648;2023-02-07T16:16:05;10.20;;;5.97;;
29240;SDS011;16268;49.880;8.648;2023-02-07T16:18:37;12.10;;;5.50;;
29240;SDS011;16268;49.880;8.648;2023-02-07T16:21:05;10.35;;;5.80;;
29240;SDS011;16268;49.880;8.648;2023-02-07T16:23:36;10.63;;;5.97;;
29240;SDS011;16268;49.880;8.648;2023-02-07T16:26:01;10.82;;;5.70;;
29240;SDS011;16268;49.880;8.648;2023-02-07T16:28:28;10.65;;;6.00;;
29240;SDS011;16268;49.880;8.648;2023-02-07T16:30:54;10.73;;;5.85;;
29240;SDS011;16268;49.880;8.648;2023-02-07T16:33:20;10.32;;;5.88;;
29240;SDS011;16268;49.880;8.648;2023-02-07T16:35:45;10.48;;;5.43;;
29240;SDS011;16268;49.880;8.648;2023-02-07T16:38:11;10.07;;;5.30;;
29240;SDS011;16268;49.880;8.648;2023-02-07T16:40:37;12.75;;;5.90;;
29240;SDS011;16268;49.880;8.648;2023-02-07T16:43:03;11.15;;;5.80;;
29240;SDS011;16268;49.880;8.648;2023-02-07T16:45:30;10.35;;;6.13;;
29240;SDS011;16268;49.880;8.648;2023-02-07T16:47:57;11.60;;;5.97;;
29240;SDS011;16268;49.880;8.648;2023-02-07T16:50:24;10.40;;;5.78;;
29240;SDS011;16268;49.880;8.648;2023-02-07T16:52:52;13.38;;;6.28;;
29240;SDS011;16268;49.880;8.648;2023-02-07T16:55:21;11.23;;;6.28;;
29240;SDS011;16268;49.880;8.648;2023-02-07T16:57:50;13.02;;;6.50;;
29240;SDS011;16268;49.880;8.648;2023-02-07T17:00:20;11.93;;;6.60;;
29240;SDS011;16268;49.880;8.648;2023-02-07T17:02:47;13.57;;;6.65;;
29240;SDS011;16268;49.880;8.648;2023-02-07T17:05:14;10.88;;;6.35;;